Portada
METAR-TAF:

METAR-TAF

Aeroports :

Camiri, Bolívia

latitud: 20-00S, longitud: 063-32W, altitud: 798 m

Observació

L'informe es va fer fa 3 hores i 45 minuts, a les 22:00 UTC
Vent calma
Temperatura 18°C
Humitat 83%
Pressió 1010 hPa
Visibilitat: 8000 m
Cel ennuvolat a una alçada de 2300 ft
Cel cobert a una alçada de 7000 ft
xàfecs en les proximitats,

METAR: SLCA 172200Z 00000KT 8000 VCSH BKN023 OVC070 18/15 Q1010

Hora: 21:45 (01:45 UTC)


TAF: manca

Observacions i pronòstics meteorològics de més de 4000 aeroports (METAR i TAF).

Les estacions disponibles són els punts grocs i vermells al mapa.

Posi el ratolí al punt desitjat per veure el nom de l'estació.

Feu clic per veure les observacions i els pronòstics meteorològics.

Per canviar el mapa: feu clic els botons verds amb una creu de color negre per apropar; al botó verd amb un guió per allunyar la imatge; o en les fletxes verdes per a mapes adjacents.


METAR-TAF: